This is the latest recevied weather packets stored in our database for station/object BMCB-5. If no packets are shown the sender has not sent any weather packets the latest 10 day(s).
| Time | Temp. | Humidity | Pressure | Rain* | Wind** | Luminosity | Snow |
|---|---|---|---|---|---|---|---|
| 1777772458 | 14.44° C | 99% | 1015.4 hPa | 0 mm | - | 0 W/m² | - |
| 1777768858 | 14.44° C | 10% | 1015.8 hPa | 0 mm | - | - | - |
| 1777767660 | 14.44° C | 10% | 1015.7 hPa | 0 mm | - | - | - |
| 1777764666 | 14.44° C | 10% | 1016.1 hPa | 0 mm | - | - | - |
| 1777763466 | 13.89° C | 99% | 1016.2 hPa | 0 mm | - | 0 W/m² | - |
| 1777759267 | 15° C | 99% | 1016.2 hPa | 0 mm | - | 0 W/m² | - |
| 1777756271 | 14.44° C | 99% | 1016.4 hPa | 0 mm | - | 0 W/m² | - |
| 1777754472 | 14.44° C | 98% | 1016.3 hPa | 0 mm | - | 0 W/m² | - |
| 1777749076 | 15.56° C | 90% | 1016.8 hPa | 3.05 mm | - | 0 W/m² | - |
| 1777747872 | 17.78° C | 78% | 1016.7 hPa | 0 mm | - | 0 W/m² | - |
| 1777744875 | 20° C | 69% | 1016.2 hPa | 0 mm | - | 24 W/m² | - |
| 1777744268 | 20° C | 71% | 1016.1 hPa | 0 mm | - | 24 W/m² | - |
| 1777743666 | 20° C | 69% | 1016.1 hPa | 0 mm | - | 22 W/m² | - |
| 1777743070 | 20.56° C | 66% | 1016.1 hPa | 0 mm | - | 24 W/m² | - |
| 1777738269 | 23.33° C | 55% | 1016.7 hPa | 0 mm | - | 64 W/m² | - |
| 1777734670 | 22.78° C | 58% | 1017.6 hPa | 0 mm | - | 158 W/m² | - |
| 1777724461 | 22.22° C | 64% | 1019.9 hPa | 0 mm | - | 594 W/m² | - |
| 1777720860 | 22.22° C | 69% | 1020.8 hPa | 0 mm | - | 430 W/m² | - |
| 1777716060 | 20.56° C | 72% | 1021.5 hPa | 0 mm | - | 364 W/m² | - |
| 1777715461 | 20.56° C | 72% | 1021.6 hPa | 0 mm | - | 364 W/m² | - |
| 1777710661 | 19.44° C | 73% | 1021.9 hPa | 0 mm | - | 360 W/m² | - |
| 1777707663 | 17.22° C | 78% | 1022.1 hPa | 0 mm | - | 298 W/m² | - |
| 1777702857 | 14.44° C | 78% | 1022.5 hPa | 0 mm | - | 126 W/m² | - |
| 1777701660 | 12.78° C | 82% | 1022.6 hPa | 0 mm | - | 58 W/m² | - |
| 1777696857 | 12.22° C | 75% | 1022.3 hPa | 0 mm | - | 0 W/m² | - |
* Rain latest hour (hover to see other rain measurements)
** Current wind speed in m/s (hover to see current wind gust speed)